Terminal Aerodrome Forecast
Issued by NWS King Salmon, AK

Home | Current Version | Previous Version | Text Only | Print | Product List | Glossary On
Versions: 1 2 3 4 5 6 7 8 9 10 11 12 13 14 15 16 17 18 19 20 21 22 23 24 25 26 27 28 29 30 31 32 33 34 35 36 37 38 39 40 41 42
000
FTAK31 PANC 230607 AAA
TAFAKN
TAF AMD
PAKN 230607Z 2306/2406 12011KT 3SM -SN BR SCT008 OVC015
      TEMPO 2306/2310 2SM -SN BR BKN008 OVC015
     FM231000 20012KT 3SM -SHSN BKN015 OVC025
     FM232100 01020G30KT P6SM BKN035=

USA.gov is the U.S. government's official web portal to all federal, state and local government web resources and services.